createdAt,value
2022-11-08T00:07:13.851Z,8.28
2022-11-08T00:17:14.467Z,8.30
2022-11-08T00:27:14.449Z,8.10
2022-11-08T00:37:14.596Z,7.80
2022-11-08T00:47:14.635Z,7.37
2022-11-08T00:57:14.933Z,7.74
2022-11-08T01:07:14.974Z,7.52
2022-11-08T01:17:15.293Z,7.90
2022-11-08T01:27:15.376Z,8.16
2022-11-08T01:37:15.458Z,7.16
2022-11-08T01:47:15.483Z,6.64
2022-11-08T01:57:15.791Z,6.56
2022-11-08T02:07:15.809Z,6.33
2022-11-08T02:17:16.138Z,6.52
2022-11-08T02:27:16.176Z,6.03
2022-11-08T02:37:16.505Z,5.81
2022-11-08T02:47:16.549Z,5.46
2022-11-08T02:57:16.850Z,5.53
2022-11-08T03:07:20.747Z,5.38
2022-11-08T03:17:17.957Z,5.21
2022-11-08T03:27:17.261Z,4.99
2022-11-08T03:37:17.312Z,4.88
2022-11-08T03:47:17.608Z,4.73
2022-11-08T03:57:17.626Z,4.47
2022-11-08T04:07:17.955Z,4.50
2022-11-08T04:17:18.020Z,4.20
2022-11-08T04:27:18.310Z,4.09
2022-11-08T04:37:18.348Z,4.08
2022-11-08T04:47:18.679Z,4.02
2022-11-08T04:57:18.741Z,3.83
2022-11-08T05:07:18.914Z,3.80
2022-11-08T05:17:18.950Z,3.76
2022-11-08T05:27:19.258Z,4.11
2022-11-08T05:37:19.295Z,4.22
2022-11-08T05:47:19.603Z,4.09
2022-11-08T05:57:22.086Z,4.11
2022-11-08T06:07:20.468Z,4.05
2022-11-08T06:17:20.066Z,3.93
2022-11-08T06:27:21.849Z,3.94
2022-11-08T06:37:20.289Z,4.14
2022-11-08T06:47:24.042Z,7.20
2022-11-08T06:57:20.674Z,9.05
2022-11-08T07:07:21.017Z,9.51
2022-11-08T07:17:21.046Z,9.75
2022-11-08T07:27:21.360Z,9.81
2022-11-08T07:37:21.388Z,10.11
2022-11-08T07:47:21.712Z,10.01
2022-11-08T07:57:21.784Z,10.20
2022-11-08T08:07:21.887Z,10.36
2022-11-08T08:17:21.986Z,9.50
2022-11-08T08:27:22.158Z,9.71
2022-11-08T08:37:22.257Z,10.42
2022-11-08T08:47:22.342Z,11.17
2022-11-08T08:57:22.473Z,11.32
2022-11-08T09:07:22.924Z,11.36
2022-11-08T09:17:22.903Z,11.70
2022-11-08T09:27:23.047Z,11.76
2022-11-08T09:37:23.066Z,11.80
2022-11-08T09:47:23.399Z,11.42
2022-11-08T09:57:23.452Z,12.68
2022-11-08T10:07:23.837Z,13.55
2022-11-08T10:17:23.928Z,14.33
2022-11-08T10:27:24.215Z,14.68
2022-11-08T10:37:24.232Z,15.19
2022-11-08T10:47:24.763Z,15.11
2022-11-08T10:57:24.690Z,15.02
2022-11-08T11:07:25.009Z,14.95
2022-11-08T11:27:25.038Z,15.78
2022-11-08T11:37:25.062Z,15.86
2022-11-08T11:47:25.396Z,16.38
2022-11-08T11:57:25.420Z,16.31
2022-11-08T12:07:25.783Z,16.93
2022-11-08T12:17:25.920Z,17.71
2022-11-08T12:27:26.815Z,17.93
2022-11-08T12:37:26.038Z,16.82
2022-11-08T12:47:26.695Z,17.72
2022-11-08T12:57:26.361Z,17.63
2022-11-08T13:07:26.704Z,18.57
2022-11-08T13:17:26.733Z,17.92
2022-11-08T13:27:27.046Z,17.70
2022-11-08T13:37:27.119Z,17.31
2022-11-08T13:47:27.160Z,17.23
2022-11-08T13:57:27.411Z,17.19
2022-11-08T14:07:27.780Z,16.78
2022-11-08T14:17:27.861Z,16.21
2022-11-08T14:27:28.014Z,16.43
2022-11-08T14:37:28.076Z,15.74
2022-11-08T14:47:28.348Z,15.68
2022-11-08T14:57:28.780Z,15.35
2022-11-08T15:07:29.569Z,15.01
2022-11-08T15:17:29.375Z,14.94
2022-11-08T15:27:29.161Z,14.03
2022-11-08T15:37:30.659Z,13.96
2022-11-08T15:47:29.729Z,13.42
2022-11-08T15:57:31.922Z,13.41
2022-11-08T16:07:29.870Z,12.95
2022-11-08T16:17:30.168Z,12.20
2022-11-08T16:27:30.452Z,11.86
2022-11-08T16:37:30.427Z,11.60
2022-11-08T16:47:31.261Z,11.54
2022-11-08T16:57:35.740Z,11.40
2022-11-08T17:07:30.612Z,11.32
2022-11-08T17:17:31.022Z,10.97
2022-11-08T17:27:30.978Z,10.91
2022-11-08T17:37:31.263Z,10.18
2022-11-08T17:47:31.256Z,10.32
2022-11-08T17:57:31.572Z,9.75
2022-11-08T18:07:32.538Z,9.36
2022-11-08T18:17:32.062Z,9.28
2022-11-08T18:27:31.820Z,8.99
2022-11-08T18:37:32.621Z,9.18
2022-11-08T18:47:33.046Z,9.29
2022-11-08T18:57:32.756Z,9.32
2022-11-08T19:07:45.883Z,9.11
2022-11-08T19:17:32.606Z,8.70
2022-11-08T19:27:33.211Z,8.48
2022-11-08T19:37:33.213Z,8.45
2022-11-08T19:47:33.461Z,8.26
2022-11-08T19:57:33.657Z,8.33
2022-11-08T20:07:37.961Z,8.29
2022-11-08T20:17:33.966Z,7.95
2022-11-08T20:27:34.254Z,7.92
2022-11-08T20:37:34.211Z,7.53
2022-11-08T20:47:36.377Z,7.39
2022-11-08T20:57:34.578Z,7.43
2022-11-08T21:12:21.312Z,7.63
2022-11-08T21:18:56.525Z,7.30
2022-11-08T21:28:56.497Z,7.09
2022-11-08T21:38:56.745Z,7.20
2022-11-08T21:48:56.848Z,7.43
2022-11-08T21:58:56.861Z,7.12
